This is the latest recevied weather packets stored in our database for station/object WBKK. If no packets are shown the sender has not sent any weather packets the latest 10 day(s).
| Time | Temp. | Humidity | Pressure | Rain* | Wind** | Luminosity | Snow |
|---|---|---|---|---|---|---|---|
| 1788150907 | 91° F | 66% | 757.6 mmHg | - | - | - | - |
| 1788149785 | 89° F | 66% | 757.6 mmHg | - | - | - | - |
| 1788147929 | 89° F | 70% | 757.6 mmHg | - | - | - | - |
| 1788146185 | 89° F | 70% | 757.6 mmHg | - | - | - | - |
| 1788144318 | 87° F | 70% | 758.3 mmHg | - | - | - | - |
| 1788142586 | 87° F | 70% | 758.3 mmHg | - | - | - | - |
| 1788140718 | 87° F | 70% | 758.3 mmHg | - | - | - | - |
| 1788139042 | 86° F | 70% | 758.3 mmHg | - | - | - | - |
| 1788137118 | 82° F | 69% | 758.3 mmHg | - | - | - | - |
| 1788135386 | 78° F | 78% | 758.3 mmHg | - | - | - | - |
| 1788133526 | 78° F | 78% | 758.3 mmHg | - | - | - | - |
| 1788131785 | 77° F | 83% | 757.6 mmHg | - | - | - | - |
| 1788129919 | 77° F | 78% | 756.8 mmHg | - | - | - | - |
| 1788128186 | 77° F | 78% | 756.8 mmHg | - | - | - | - |
| 1788126318 | 75° F | 88% | 756.8 mmHg | - | - | - | - |
| 1788124613 | 75° F | 88% | 756.8 mmHg | - | - | - | - |
| 1788122718 | 77° F | 83% | 756.8 mmHg | - | - | - | - |
| 1788121015 | 77° F | 78% | 756.8 mmHg | - | - | - | - |
| 1788119128 | 78° F | 73% | 756.8 mmHg | - | - | - | - |
| 1788117385 | 78° F | 73% | 757.6 mmHg | - | - | - | - |
| 1788115519 | 77° F | 83% | 758.3 mmHg | - | - | - | - |
| 1788113785 | 78° F | 88% | 758.3 mmHg | - | - | - | - |
| 1788111917 | 78° F | 88% | 758.3 mmHg | - | - | - | - |
| 1788111307 | 77° F | 94% | 758.3 mmHg | - | - | - | - |
| 1788110212 | 78° F | 88% | 758.3 mmHg | - | - | - | - |
* Rain since midnight (hover to see other rain measurements)
** Current wind speed in m/s (hover to see current wind gust speed)